Newtown Square, Pennsylvania
Current Conditions -  °F | °C
As of 1:54 PM on Wednesday 26 Nov 2014 (Local Time) from KPHL Reporting Station
Light Snow Light Snow  
Wind Chill: 27°   Ceiling: 800
Heat Index: 37°   Visibility: 5mi
Dew Point: 33°   Wind: 18mph
Humidity: 86%   Direction: 20°NNE
Pressure: 29.86"   Gusts: 26mph
Location:  39.99°N, 75.4°W
Report Text: KPHL 261854Z 02016G23KT 5SM -RASN BR BKN008 OVC012 03/01 A2986 RMK AO2 SNE14B24 SLP111 P0005 T00280006 $
Loading
Personal Weather Stations






























Interactive Weather Map New forecast layout! Learn more

10-Day Weather Forecast

Advertisements
Track Severe Weather on mobile